Sorochinsk, Russia
Current Conditions -  °F | °C
As of 8:00 PM on Tuesday 21 Oct 2014 (Local Time) from UWOO Reporting Station
Drizzle Drizzle  
Wind Chill: 35°   Ceiling: 500
Heat Index: 41°   Visibility: 2mi
Dew Point: 39°   Wind: 9mph
Humidity: 93%   Direction: 200°SSW
Pressure: 29.68"   Gusts: NA
Location:  52.43°N, 53.17°E
Report Text: UWOO 211500Z 20004MPS 3200 -DZ BR OVC005 05/04 Q1005 26290050TEMPO 1000 BR OVC003 RMK QBB170 QFE743/0991
Loading
Personal Weather Stations






























Interactive Weather Map
Tropical Storm Tracking
New forecast layout! Learn more

10-Day Weather Forecast

Advertisements
Track Severe Weather on mobile